Time;durP1;ratioP1;P1;durP2;ratioP2;P2;SDS_P1;SDS_P2;PMS_P1;PMS_P2;Temp;Humidity;BMP_temperature;BMP_pressure;BME280_temperature;BME280_humidity;BME280_pressure;Samples;Min_cycle;Max_cycle;Signal;HPM_P1;HPM_P2
2023/11/24 00:00:06;;;;;;;25.73;15.60;;;;;;;2.39;100.00;99432.72;1474484;88;22002;-81
2023/11/24 00:02:32;;;;;;;27.43;17.97;;;;;;;2.42;100.00;99439.48;1476097;88;22344;-83
2023/11/24 00:04:59;;;;;;;30.80;19.30;;;;;;;2.43;100.00;99430.69;1487270;88;22181;-83
2023/11/24 00:07:25;;;;;;;26.77;16.33;;;;;;;2.41;100.00;99420.83;1479688;88;22233;-80
2023/11/24 00:09:51;;;;;;;27.67;17.37;;;;;;;2.42;100.00;99428.56;1450132;88;22102;-79
2023/11/24 00:12:18;;;;;;;28.93;18.97;;;;;;;2.41;100.00;99423.44;1481539;88;22155;-80
2023/11/24 00:14:45;;;;;;;43.83;20.03;;;;;;;2.43;100.00;99411.92;1451685;88;23265;-81
2023/11/24 00:17:12;;;;;;;29.87;18.23;;;;;;;2.43;100.00;99399.35;1474299;88;22077;-81
2023/11/24 00:19:38;;;;;;;35.73;17.93;;;;;;;2.34;100.00;99386.54;1478416;88;22215;-79
2023/11/24 00:22:04;;;;;;;32.17;19.87;;;;;;;2.34;100.00;99386.54;1445518;88;22987;-80
2023/11/24 00:24:30;;;;;;;31.10;19.73;;;;;;;2.35;100.00;99385.58;1472885;88;22057;-80
2023/11/24 00:26:58;;;;;;;28.00;18.20;;;;;;;2.35;100.00;99380.84;1479685;88;21999;-79
2023/11/24 00:29:26;;;;;;;28.17;18.13;;;;;;;2.34;100.00;99394.38;1487134;88;22070;-82
2023/11/24 00:31:53;;;;;;;28.77;18.67;;;;;;;2.35;100.00;99387.37;1451790;89;22181;-81
2023/11/24 00:34:21;;;;;;;28.93;16.93;;;;;;;2.36;100.00;99367.67;1464952;89;22234;-80
2023/11/24 00:36:47;;;;;;;32.07;18.43;;;;;;;2.36;100.00;99343.31;1459667;89;22137;-80
2023/11/24 00:39:14;;;;;;;31.47;18.53;;;;;;;2.39;100.00;99342.62;1453027;88;23061;-81
2023/11/24 00:41:40;;;;;;;35.10;19.30;;;;;;;2.41;100.00;99340.70;1452063;89;21508;-80
2023/11/24 00:44:06;;;;;;;32.63;21.03;;;;;;;2.42;100.00;99345.47;1459345;88;22074;-80
2023/11/24 00:46:33;;;;;;;30.30;19.50;;;;;;;2.42;100.00;99334.55;1464477;89;22234;-80
2023/11/24 00:48:59;;;;;;;29.97;19.63;;;;;;;2.43;100.00;99322.31;1453466;89;22081;-79
2023/11/24 00:51:25;;;;;;;33.60;18.70;;;;;;;2.44;100.00;99323.95;1451128;89;22168;-79
2023/11/24 00:53:53;;;;;;;26.70;16.90;;;;;;;2.49;100.00;99321.81;1454669;89;23040;-80
2023/11/24 00:56:19;;;;;;;28.37;18.60;;;;;;;2.52;100.00;99321.56;1465899;89;22100;-83
2023/11/24 00:58:45;;;;;;;34.30;19.17;;;;;;;2.57;100.00;99323.34;1457865;89;22167;-84
2023/11/24 01:01:11;;;;;;;31.60;19.73;;;;;;;2.59;100.00;99309.69;1437897;89;22036;-84
2023/11/24 01:03:38;;;;;;;31.20;20.80;;;;;;;2.61;100.00;99293.39;1452614;89;22140;-83
2023/11/24 01:06:05;;;;;;;27.37;17.93;;;;;;;2.60;100.00;99278.68;1458956;89;21998;-82
2023/11/24 01:08:31;;;;;;;37.00;17.70;;;;;;;2.61;100.00;99271.19;1468223;89;22093;-84
2023/11/24 01:10:57;;;;;;;32.07;18.97;;;;;;;2.60;100.00;99256.48;1456972;89;22076;-81
2023/11/24 01:13:24;;;;;;;29.63;19.07;;;;;;;2.63;100.00;99247.08;1466687;89;22265;-84
2023/11/24 01:15:51;;;;;;;32.63;19.20;;;;;;;2.66;100.00;99236.38;1452524;89;23054;-83
2023/11/24 01:18:18;;;;;;;28.57;17.33;;;;;;;2.69;100.00;99247.88;1466458;89;22174;-83
2023/11/24 01:20:45;;;;;;;32.50;20.10;;;;;;;2.75;100.00;99227.44;1461548;89;23099;-83
2023/11/24 01:23:11;;;;;;;31.67;19.83;;;;;;;2.80;100.00;99212.21;1457203;89;22112;-82
2023/11/24 01:25:37;;;;;;;35.00;19.90;;;;;;;2.86;100.00;99189.48;1461524;89;22220;-84
2023/11/24 01:28:04;;;;;;;29.97;19.33;;;;;;;2.89;100.00;99186.13;1459665;89;22120;-84
2023/11/24 01:30:30;;;;;;;34.30;19.97;;;;;;;2.94;100.00;99167.45;1456986;89;21984;-82
2023/11/24 01:32:56;;;;;;;32.93;19.20;;;;;;;2.94;100.00;99167.45;1467933;88;22447;-83
2023/11/24 01:35:23;;;;;;;30.93;18.50;;;;;;;2.96;100.00;99156.38;1456804;88;22439;-83
2023/11/24 01:37:49;;;;;;;35.10;20.70;;;;;;;3.00;100.00;99148.63;1463022;88;22093;-81
2023/11/24 01:40:18;;;;;;;33.00;20.93;;;;;;;3.00;100.00;99148.63;1473899;88;22757;-78
2023/11/24 01:42:44;;;;;;;31.17;21.27;;;;;;;3.06;100.00;99115.44;1478343;88;22110;-78
2023/11/24 01:45:10;;;;;;;34.20;19.90;;;;;;;3.07;100.00;99107.92;1472871;88;22093;-79
2023/11/24 01:47:40;;;;;;;35.63;21.93;;;;;;;3.06;100.00;99106.28;1477938;88;22254;-78
2023/11/24 01:50:09;;;;;;;33.20;21.10;;;;;;;3.12;100.00;99101.83;1468573;88;21486;-80
2023/11/24 01:52:36;;;;;;;33.50;21.70;;;;;;;3.06;100.00;99111.52;1468008;88;21442;-83
2023/11/24 01:55:06;;;;;;;37.67;22.57;;;;;;;3.06;100.00;99116.73;1473050;88;21531;-82
2023/11/24 01:57:33;;;;;;;38.23;21.83;;;;;;;2.98;100.00;99103.50;1476031;88;22521;-80
2023/11/24 02:00:01;;;;;;;38.93;24.40;;;;;;;2.96;100.00;99089.72;1470890;88;21465;-80
2023/11/24 02:02:30;;;;;;;34.77;22.47;;;;;;;2.96;100.00;99089.72;1477249;88;21589;-79
2023/11/24 02:04:56;;;;;;;35.87;21.67;;;;;;;2.90;100.00;99088.95;1481874;88;22038;-81
2023/11/24 02:07:23;;;;;;;33.10;21.60;;;;;;;2.87;100.00;99103.58;1468962;88;21360;-78
2023/11/24 02:09:49;;;;;;;38.33;22.70;;;;;;;2.80;100.00;99088.91;1467221;88;22125;-80
2023/11/24 02:12:15;;;;;;;34.93;21.73;;;;;;;2.84;100.00;99084.25;1475720;88;22373;-79
2023/11/24 02:14:42;;;;;;;35.37;23.43;;;;;;;2.80;100.00;99086.30;1471120;88;21339;-83
2023/11/24 02:17:08;;;;;;;38.30;23.03;;;;;;;2.80;100.00;99086.30;1479450;88;21655;-80
2023/11/24 02:19:34;;;;;;;35.50;21.00;;;;;;;2.82;100.00;99076.55;1475523;88;22011;-80
2023/11/24 02:22:01;;;;;;;38.80;23.80;;;;;;;2.76;100.00;99073.62;1475187;88;22145;-79
2023/11/24 02:24:27;;;;;;;37.87;22.63;;;;;;;2.74;100.00;99064.62;1476463;88;22254;-79
2023/11/24 02:26:53;;;;;;;38.50;22.87;;;;;;;2.71;100.00;99070.11;1483258;88;21375;-80
2023/11/24 02:29:19;;;;;;;35.17;22.07;;;;;;;2.73;100.00;99075.19;1473418;88;22264;-79
2023/11/24 02:31:45;;;;;;;34.47;21.80;;;;;;;2.76;100.00;99075.75;1472497;88;23088;-79
2023/11/24 02:34:13;;;;;;;38.23;24.30;;;;;;;2.76;100.00;99075.75;1463451;88;21570;-80
2023/11/24 02:36:42;;;;;;;34.83;21.97;;;;;;;2.79;100.00;99070.29;1467698;88;22172;-79
2023/11/24 02:39:08;;;;;;;36.73;21.57;;;;;;;2.83;100.00;99087.83;1476850;88;23256;-83
2023/11/24 02:41:34;;;;;;;35.97;22.00;;;;;;;2.84;100.00;99081.63;1475074;88;22113;-83
2023/11/24 02:44:00;;;;;;;39.67;25.20;;;;;;;2.86;100.00;99072.70;1476726;88;22262;-82
2023/11/24 02:46:27;;;;;;;34.40;22.30;;;;;;;2.91;100.00;99076.25;1468787;88;22053;-83
2023/11/24 02:48:53;;;;;;;36.97;22.17;;;;;;;2.92;100.00;99083.12;1482230;88;21383;-84
2023/11/24 02:51:19;;;;;;;34.63;21.97;;;;;;;2.96;100.00;99064.07;1476362;88;22875;-84
2023/11/24 02:53:47;;;;;;;33.90;20.03;;;;;;;2.92;100.00;99035.59;1473607;88;22291;-82
2023/11/24 02:56:13;;;;;;;31.50;22.13;;;;;;;2.92;100.00;99035.59;1475192;88;21545;-84
2023/11/24 02:58:42;;;;;;;33.90;19.60;;;;;;;3.00;100.00;99058.94;1472130;88;21530;-81
2023/11/24 03:01:08;;;;;;;34.17;20.87;;;;;;;3.00;100.00;99058.94;1471629;88;21633;-82
2023/11/24 03:03:34;;;;;;;38.47;21.00;;;;;;;2.96;100.00;99021.77;1474244;88;21367;-84
2023/11/24 03:06:05;;;;;;;37.90;22.80;;;;;;;2.96;100.00;99021.77;1476543;88;21482;-82
2023/11/24 03:08:30;;;;;;;33.13;20.60;;;;;;;2.98;100.00;99025.57;1470140;88;22358;-82
2023/11/24 03:11:00;;;;;;;31.30;21.20;;;;;;;2.93;100.00;99018.97;1473358;88;21470;-82
2023/11/24 03:13:27;;;;;;;34.53;23.13;;;;;;;2.98;100.00;99019.86;1479611;88;21814;-81
2023/11/24 03:15:53;;;;;;;39.07;23.57;;;;;;;3.04;100.00;98989.26;1477149;88;22462;-84
2023/11/24 03:18:19;;;;;;;36.87;20.67;;;;;;;3.04;100.00;98989.26;1466150;88;22328;-84
2023/11/24 03:20:45;;;;;;;35.63;20.70;;;;;;;3.03;100.00;98995.45;1470219;88;21497;-84
2023/11/24 03:23:11;;;;;;;38.50;21.80;;;;;;;3.03;100.00;98991.53;1482337;88;21353;-84
2023/11/24 03:25:38;;;;;;;36.80;22.60;;;;;;;3.03;100.00;98991.53;1480358;88;21464;-84
2023/11/24 03:28:04;;;;;;;32.23;19.13;;;;;;;3.03;100.00;98962.78;1481236;88;23051;-81
2023/11/24 03:30:30;;;;;;;31.37;19.20;;;;;;;3.00;100.00;98927.77;1469937;88;21553;-84
2023/11/24 03:32:56;;;;;;;38.53;22.20;;;;;;;3.00;100.00;98927.77;1457666;88;21419;-84
2023/11/24 03:35:23;;;;;;;33.27;19.77;;;;;;;3.00;100.00;98927.77;1482931;88;22128;-82
2023/11/24 03:37:49;;;;;;;32.47;19.93;;;;;;;3.01;100.00;98938.56;1465197;88;22146;-84
2023/11/24 03:40:16;;;;;;;34.63;21.60;;;;;;;2.98;100.00;98935.40;1468606;88;22072;-83
2023/11/24 03:42:43;;;;;;;35.30;21.43;;;;;;;2.88;100.00;98936.22;1489184;88;21331;-81
2023/11/24 03:45:10;;;;;;;33.33;19.83;;;;;;;2.90;100.00;98941.30;1476007;88;23520;-84
2023/11/24 03:47:38;;;;;;;32.47;20.40;;;;;;;2.93;100.00;98934.48;1479079;88;22058;-83
2023/11/24 03:50:05;;;;;;;33.20;20.83;;;;;;;2.91;100.00;98922.18;1480419;88;21552;-81
2023/11/24 03:52:33;;;;;;;32.00;20.90;;;;;;;2.93;100.00;98934.03;1480788;88;21671;-84
2023/11/24 03:55:00;;;;;;;32.47;20.27;;;;;;;2.93;100.00;98934.03;1462820;88;21433;-84
2023/11/24 03:57:26;;;;;;;34.70;20.27;;;;;;;2.93;100.00;98929.26;1476799;88;23009;-81
2023/11/24 03:59:52;;;;;;;32.63;19.80;;;;;;;2.94;100.00;98923.09;1474478;88;22838;-84
2023/11/24 04:02:18;;;;;;;33.70;20.60;;;;;;;2.96;100.00;98910.69;1476028;88;22211;-81
2023/11/24 04:04:46;;;;;;;29.07;20.63;;;;;;;2.96;100.00;98910.69;1479672;88;21434;-83
2023/11/24 04:07:15;;;;;;;32.13;18.50;;;;;;;3.01;100.00;98912.91;1478418;88;22034;-82
2023/11/24 04:09:42;;;;;;;31.40;18.97;;;;;;;3.03;100.00;98896.13;1468831;88;22131;-84
2023/11/24 04:12:08;;;;;;;25.37;16.43;;;;;;;3.05;100.00;98904.67;1485952;88;22078;-79
2023/11/24 04:14:34;;;;;;;31.03;20.00;;;;;;;3.09;100.00;98904.73;1481121;88;22197;-79
2023/11/24 04:17:00;;;;;;;29.40;19.33;;;;;;;3.14;100.00;98889.46;1459252;88;23031;-81
2023/11/24 04:19:27;;;;;;;30.00;19.77;;;;;;;3.16;100.00;98869.25;1484362;88;21409;-80
2023/11/24 04:21:53;;;;;;;27.80;17.73;;;;;;;3.22;100.00;98882.22;1467447;88;21367;-79
2023/11/24 04:24:19;;;;;;;34.77;20.77;;;;;;;3.24;100.00;98861.17;1471425;88;22100;-79
2023/11/24 04:26:46;;;;;;;32.30;20.50;;;;;;;3.27;100.00;98862.20;1481385;88;22605;-78
2023/11/24 04:29:12;;;;;;;31.30;19.77;;;;;;;3.30;100.00;98844.92;1474756;88;22306;-80
2023/11/24 04:31:38;;;;;;;30.17;16.73;;;;;;;3.22;100.00;98845.61;1472813;88;21545;-80
2023/11/24 04:34:04;;;;;;;32.67;17.73;;;;;;;3.24;100.00;98819.34;1450320;89;21404;-79
2023/11/24 04:36:31;;;;;;;35.23;21.23;;;;;;;3.24;100.00;98819.34;1456598;88;21420;-79
2023/11/24 04:38:57;;;;;;;28.93;19.40;;;;;;;3.18;100.00;98815.98;1452499;89;21419;-79
2023/11/24 04:41:23;;;;;;;33.63;21.97;;;;;;;3.10;100.00;98841.02;1458453;89;22261;-79
2023/11/24 04:43:49;;;;;;;33.17;20.80;;;;;;;2.99;100.00;98843.77;1462138;89;21382;-79
2023/11/24 04:46:15;;;;;;;34.70;21.33;;;;;;;2.97;100.00;98839.67;1462767;89;21272;-81
2023/11/24 04:48:45;;;;;;;29.50;19.13;;;;;;;2.89;100.00;98838.55;1461923;89;21505;-79
2023/11/24 04:51:11;;;;;;;33.27;22.67;;;;;;;2.86;100.00;98836.22;1463066;89;21442;-80
2023/11/24 04:53:37;;;;;;;36.47;21.47;;;;;;;2.81;100.00;98819.30;1459328;89;21389;-80
2023/11/24 04:56:05;;;;;;;37.07;23.10;;;;;;;2.75;100.00;98819.37;1458129;89;22956;-80
2023/11/24 04:58:31;;;;;;;40.63;23.93;;;;;;;2.64;100.00;98809.87;1451363;89;22285;-80
2023/11/24 05:00:57;;;;;;;33.40;22.03;;;;;;;2.64;100.00;98809.87;1451969;89;22402;-79
2023/11/24 05:03:23;;;;;;;35.53;21.63;;;;;;;2.63;100.00;98853.12;1453417;89;22112;-80
2023/11/24 05:05:49;;;;;;;34.93;21.47;;;;;;;2.63;100.00;98853.12;1454812;89;21553;-79
2023/11/24 05:08:15;;;;;;;36.30;22.30;;;;;;;2.59;100.00;98864.78;1462341;89;23035;-79
2023/11/24 05:10:42;;;;;;;35.40;21.10;;;;;;;2.63;100.00;98857.86;1472013;89;22060;-80
2023/11/24 05:13:08;;;;;;;35.47;22.00;;;;;;;2.59;100.00;98865.63;1462636;89;21533;-84
2023/11/24 05:15:35;;;;;;;32.67;20.43;;;;;;;2.53;100.00;98872.67;1465935;89;22142;-82
2023/11/24 05:18:03;;;;;;;38.73;22.93;;;;;;;2.51;100.00;98868.08;1454250;88;22191;-83
2023/11/24 05:20:29;;;;;;;36.33;21.93;;;;;;;2.54;100.00;98857.37;1454242;89;22142;-82
2023/11/24 05:22:55;;;;;;;33.93;21.93;;;;;;;2.50;100.00;98845.52;1460691;89;22334;-80
2023/11/24 05:25:22;;;;;;;40.03;25.60;;;;;;;2.53;100.00;98842.64;1458558;89;22104;-83
2023/11/24 05:27:48;;;;;;;36.47;21.80;;;;;;;2.54;100.00;98838.27;1442417;89;22030;-87
2023/11/24 05:30:15;;;;;;;34.67;23.13;;;;;;;2.56;100.00;98838.93;1464030;89;22151;-80
2023/11/24 05:32:44;;;;;;;48.97;26.53;;;;;;;2.55;100.00;98827.67;1458608;88;22163;-80
2023/11/24 05:35:10;;;;;;;38.83;24.50;;;;;;;2.55;100.00;98821.14;1479792;88;22123;-82
2023/11/24 05:37:36;;;;;;;38.87;24.40;;;;;;;2.53;100.00;98826.97;1471744;88;22246;-80
2023/11/24 05:40:05;;;;;;;30.20;19.63;;;;;;;2.53;100.00;98826.97;1475653;88;23581;-81
2023/11/24 05:42:30;;;;;;;38.03;22.67;;;;;;;2.54;100.00;98810.36;1479594;88;22161;-81
2023/11/24 05:44:56;;;;;;;37.13;20.63;;;;;;;2.53;100.00;98813.09;1463227;88;23141;-80
2023/11/24 05:47:22;;;;;;;41.80;24.20;;;;;;;2.52;100.00;98787.46;1469920;88;22135;-83
2023/11/24 05:49:51;;;;;;;38.53;24.97;;;;;;;2.52;100.00;98787.46;1472372;88;21330;-82
2023/11/24 05:52:17;;;;;;;37.47;23.37;;;;;;;2.56;100.00;98811.05;1474414;88;22098;-82
2023/11/24 05:54:43;;;;;;;38.03;22.87;;;;;;;2.56;100.00;98805.83;1473268;88;22241;-79
2023/11/24 05:57:09;;;;;;;35.57;23.37;;;;;;;2.53;100.00;98802.16;1471517;88;23000;-80
2023/11/24 05:59:35;;;;;;;41.50;24.87;;;;;;;2.54;100.00;98812.97;1480026;88;22216;-80
2023/11/24 06:02:03;;;;;;;38.67;24.60;;;;;;;2.53;100.00;98811.30;1484841;88;22062;-80
2023/11/24 06:05:16;;;;;;;40.70;24.77;;;;;;;2.51;100.00;98809.81;1485372;88;22035;-80
2023/11/24 06:07:43;;;;;;;40.07;23.27;;;;;;;2.49;100.00;98808.62;1476761;88;23001;-81
2023/11/24 06:10:10;;;;;;;39.90;22.97;;;;;;;2.46;100.00;98810.20;1473966;88;22247;-80
2023/11/24 06:12:36;;;;;;;37.97;24.00;;;;;;;2.47;100.00;98803.55;1473288;88;22963;-80
2023/11/24 06:15:04;;;;;;;35.33;22.67;;;;;;;2.51;100.00;98810.63;1475180;88;22151;-80
2023/11/24 06:17:30;;;;;;;36.93;21.33;;;;;;;2.56;100.00;98802.37;1469126;88;22304;-80
2023/11/24 06:19:57;;;;;;;33.83;22.47;;;;;;;2.56;100.00;98804.52;1472277;88;22069;-81
2023/11/24 06:22:23;;;;;;;42.90;25.77;;;;;;;2.60;100.00;98803.77;1475613;88;22230;-82
2023/11/24 06:24:49;;;;;;;36.37;22.40;;;;;;;2.63;100.00;98799.08;1475739;88;22143;-82
2023/11/24 06:27:16;;;;;;;38.00;23.53;;;;;;;2.65;100.00;98802.39;1471087;88;22016;-79
2023/11/24 06:29:42;;;;;;;38.13;23.73;;;;;;;2.71;100.00;98810.16;1480959;88;23163;-78
2023/11/24 06:32:11;;;;;;;36.60;23.77;;;;;;;2.71;100.00;98810.16;1464876;88;21368;-78
2023/11/24 06:34:37;;;;;;;35.70;21.47;;;;;;;2.78;100.00;98815.66;1453764;88;22239;-79
2023/11/24 06:37:04;;;;;;;40.17;24.60;;;;;;;2.75;100.00;98825.08;1479475;88;23076;-79
2023/11/24 06:39:31;;;;;;;32.67;19.23;;;;;;;2.73;100.00;98831.73;1478559;88;22113;-79
2023/11/24 06:41:58;;;;;;;36.00;23.20;;;;;;;2.74;100.00;98824.74;1482160;88;22485;-81
2023/11/24 06:44:26;;;;;;;44.93;26.70;;;;;;;2.74;100.00;98824.74;1476126;88;22483;-83
2023/11/24 06:46:52;;;;;;;40.40;22.83;;;;;;;2.68;100.00;98827.42;1462029;88;22012;-79
2023/11/24 06:49:19;;;;;;;40.87;26.27;;;;;;;2.74;100.00;98829.97;1457255;88;22260;-81
2023/11/24 06:51:48;;;;;;;38.20;23.97;;;;;;;2.75;100.00;98820.67;1465675;88;22618;-79
2023/11/24 06:54:14;;;;;;;41.43;24.17;;;;;;;2.75;100.00;98820.67;1470653;88;22460;-82
2023/11/24 06:56:40;;;;;;;40.37;26.80;;;;;;;2.76;100.00;98831.95;1464765;88;22208;-83
2023/11/24 06:59:07;;;;;;;43.20;25.13;;;;;;;2.75;100.00;98819.85;1471572;88;22059;-82
2023/11/24 07:01:35;;;;;;;44.20;28.00;;;;;;;2.75;100.00;98813.32;1473877;88;22186;-83
2023/11/24 07:04:02;;;;;;;40.40;26.73;;;;;;;2.75;100.00;98816.75;1470139;88;22617;-83
2023/11/24 07:06:29;;;;;;;45.23;28.47;;;;;;;2.71;100.00;98810.98;1475547;88;21383;-80
2023/11/24 07:08:55;;;;;;;44.17;26.80;;;;;;;2.77;100.00;98792.63;1475628;88;22255;-83
2023/11/24 07:11:22;;;;;;;46.90;26.17;;;;;;;2.74;100.00;98786.86;1476917;88;21345;-81
2023/11/24 07:13:52;;;;;;;41.43;25.83;;;;;;;2.74;100.00;98786.86;1466922;88;21605;-82
2023/11/24 07:16:18;;;;;;;42.03;26.80;;;;;;;2.78;100.00;98783.82;1478161;88;21398;-83
2023/11/24 07:18:45;;;;;;;39.90;24.93;;;;;;;2.80;100.00;98781.08;1473787;88;22281;-81
2023/11/24 07:21:11;;;;;;;42.13;26.63;;;;;;;2.82;100.00;98772.15;1474077;88;23119;-80
2023/11/24 07:23:38;;;;;;;38.40;25.50;;;;;;;2.82;100.00;98784.36;1472368;88;21511;-79
2023/11/24 07:26:08;;;;;;;37.37;24.20;;;;;;;2.92;100.00;98804.30;1477192;88;22003;-78
2023/11/24 07:28:38;;;;;;;46.13;25.93;;;;;;;2.96;100.00;98811.37;1469019;88;21603;-80
2023/11/24 07:31:05;;;;;;;39.85;22.93;;;;;;;3.04;100.00;98825.89;1472726;88;21447;-79
2023/11/24 07:33:32;;;;;;;42.23;24.20;;;;;;;3.03;100.00;98819.52;1475733;88;21354;-78
2023/11/24 07:36:00;;;;;;;50.43;26.93;;;;;;;3.08;100.00;98812.91;1476960;88;22210;-77
2023/11/24 07:38:26;;;;;;;42.40;26.13;;;;;;;3.15;100.00;98817.91;1479535;88;22101;-79
2023/11/24 07:40:54;;;;;;;46.70;27.23;;;;;;;3.11;100.00;98811.31;1474324;88;21544;-78
2023/11/24 07:43:20;;;;;;;46.97;27.43;;;;;;;3.11;100.00;98812.63;1478834;88;21454;-80
2023/11/24 07:45:48;;;;;;;43.73;27.20;;;;;;;3.18;100.00;98822.52;1479777;88;22269;-79
2023/11/24 07:48:15;;;;;;;36.93;25.40;;;;;;;3.16;100.00;98819.58;1482344;88;22107;-80
2023/11/24 07:50:42;;;;;;;43.47;27.03;;;;;;;3.11;100.00;98811.31;1475266;88;21330;-79
2023/11/24 07:53:13;;;;;;;38.83;25.13;;;;;;;3.19;100.00;98817.63;1447354;88;21478;-79
2023/11/24 07:55:36;;;;;;;42.67;26.33;;;;;;;3.18;100.00;98825.13;1477153;88;21479;-78
2023/11/24 07:58:03;;;;;;;43.50;28.10;;;;;;;3.15;100.00;98801.40;1481548;88;21374;-79
2023/11/24 08:00:30;;;;;;;44.50;27.40;;;;;;;3.24;100.00;98809.70;1482369;88;21529;-77
2023/11/24 08:02:57;;;;;;;42.37;26.10;;;;;;;3.27;100.00;98804.68;1484977;88;22239;-79
2023/11/24 08:05:23;;;;;;;45.77;27.63;;;;;;;3.28;100.00;98794.55;1489588;88;21540;-79
2023/11/24 08:07:50;;;;;;;42.50;26.63;;;;;;;3.31;100.00;98792.95;1475942;88;21317;-82
2023/11/24 08:10:17;;;;;;;42.83;25.83;;;;;;;3.31;100.00;98792.95;1460661;88;21427;-78
2023/11/24 08:12:45;;;;;;;40.63;26.63;;;;;;;3.34;100.00;98796.63;1478459;88;22123;-80
2023/11/24 08:15:13;;;;;;;43.13;28.23;;;;;;;3.37;100.00;98790.63;1474119;88;21441;-77
2023/11/24 08:17:40;;;;;;;43.83;26.43;;;;;;;3.38;100.00;98783.59;1487043;88;21426;-78
2023/11/24 08:20:10;;;;;;;43.03;27.07;;;;;;;3.43;100.00;98768.31;1486644;88;22454;-78
2023/11/24 08:22:37;;;;;;;44.80;26.30;;;;;;;3.46;100.00;98762.80;1476961;88;22098;-78
2023/11/24 08:25:06;;;;;;;42.30;27.47;;;;;;;3.49;100.00;98752.05;1482598;88;21293;-79
2023/11/24 08:27:32;;;;;;;42.67;25.57;;;;;;;3.50;100.00;98742.40;1485112;88;22147;-77
2023/11/24 08:30:02;;;;;;;37.23;24.10;;;;;;;3.52;100.00;98751.75;1485874;88;21434;-78
2023/11/24 08:32:27;;;;;;;52.00;31.63;;;;;;;3.48;100.00;98749.55;1476948;88;21559;-78
2023/11/24 08:34:54;;;;;;;50.27;25.73;;;;;;;3.53;100.00;98745.55;1477406;88;21455;-80
2023/11/24 08:37:20;;;;;;;51.13;30.30;;;;;;;3.51;100.00;98753.19;1471048;88;21367;-78
2023/11/24 08:39:47;;;;;;;46.63;27.57;;;;;;;3.55;100.00;98754.57;1479060;88;21574;-79
2023/11/24 08:42:13;;;;;;;39.23;25.57;;;;;;;3.54;100.00;98748.52;1480723;88;21412;-79
2023/11/24 08:44:39;;;;;;;49.17;28.00;;;;;;;3.58;100.00;98752.48;1474506;88;22404;-78
2023/11/24 08:47:05;;;;;;;47.70;30.60;;;;;;;3.56;100.00;98752.28;1462591;88;21441;-77
2023/11/24 08:49:32;;;;;;;45.53;28.57;;;;;;;3.59;100.00;98752.81;1475168;88;21978;-78
2023/11/24 08:51:58;;;;;;;46.57;28.90;;;;;;;3.58;100.00;98751.17;1468958;88;21375;-79
2023/11/24 08:54:24;;;;;;;45.53;27.63;;;;;;;3.61;100.00;98769.69;1470907;88;22521;-79
2023/11/24 08:56:50;;;;;;;41.67;26.30;;;;;;;3.65;100.00;98769.73;1468335;88;21465;-78
2023/11/24 08:59:17;;;;;;;47.30;27.50;;;;;;;3.69;100.00;98771.11;1483717;88;21619;-79
2023/11/24 09:01:43;;;;;;;40.63;24.20;;;;;;;3.74;100.00;98769.34;1477117;88;21361;-79
2023/11/24 09:04:10;;;;;;;39.63;22.90;;;;;;;3.77;100.00;98775.59;1471184;88;21478;-77
2023/11/24 09:06:38;;;;;;;41.27;25.03;;;;;;;3.76;100.00;98776.58;1464558;88;22314;-80
2023/11/24 09:09:12;;;;;;;40.07;25.67;;;;;;;3.84;100.00;98763.59;1471358;88;22805;-79
2023/11/24 09:11:38;;;;;;;36.07;22.83;;;;;;;3.91;100.00;98780.35;1480522;88;21346;-79
2023/11/24 09:14:06;;;;;;;37.27;24.70;;;;;;;3.98;100.00;98791.91;1476358;88;21479;-78
2023/11/24 09:16:32;;;;;;;34.73;22.70;;;;;;;4.05;100.00;98785.11;1478626;88;21294;-79
2023/11/24 09:18:59;;;;;;;37.97;25.07;;;;;;;4.13;100.00;98775.71;1480950;88;21618;-80
2023/11/24 09:21:26;;;;;;;46.17;26.20;;;;;;;4.20;100.00;98757.11;1473286;88;21449;-78
2023/11/24 09:23:53;;;;;;;42.03;25.60;;;;;;;4.33;100.00;98740.56;1475718;88;21486;-78
2023/11/24 09:26:19;;;;;;;38.23;25.23;;;;;;;4.43;100.00;98760.98;1485044;88;21382;-80
2023/11/24 09:28:45;;;;;;;33.17;22.03;;;;;;;4.56;100.00;98763.70;1470094;88;21553;-81
2023/11/24 09:31:12;;;;;;;38.37;24.63;;;;;;;4.70;100.00;98744.83;1480369;88;22211;-81
2023/11/24 09:33:39;;;;;;;36.37;23.53;;;;;;;4.77;100.00;98741.93;1474872;88;21406;-80
2023/11/24 09:36:08;;;;;;;40.23;25.33;;;;;;;4.85;100.00;98727.58;1477070;88;22263;-84
2023/11/24 09:38:34;;;;;;;40.50;24.90;;;;;;;4.97;100.00;98694.89;1484167;88;22306;-87
2023/11/24 09:41:08;;;;;;;43.93;25.03;;;;;;;5.15;100.00;98683.52;1460657;88;21434;-86
2023/11/24 09:43:40;;;;;;;34.33;23.07;;;;;;;5.22;100.00;98672.76;1481223;88;21352;-89
2023/11/24 09:46:09;;;;;;;36.90;24.37;;;;;;;5.24;100.00;98660.81;1471981;88;21478;-86
2023/11/24 09:48:35;;;;;;;33.87;22.67;;;;;;;5.28;100.00;98647.20;1497033;88;21330;-79
2023/11/24 09:51:07;;;;;;;43.00;25.83;;;;;;;5.29;100.00;98633.10;1482401;88;21397;-79
2023/11/24 09:53:35;;;;;;;35.97;24.13;;;;;;;5.27;100.00;98610.66;1480523;88;21589;-79
2023/11/24 09:56:03;;;;;;;37.20;23.53;;;;;;;5.26;100.00;98601.94;1481360;88;22553;-78
2023/11/24 09:58:31;;;;;;;30.83;22.00;;;;;;;5.31;100.00;98591.80;1478197;88;21412;-79
2023/11/24 10:01:11;;;;;;;32.53;21.20;;;;;;;5.27;100.00;98608.85;1484155;88;22395;-78
2023/11/24 10:03:39;;;;;;;30.17;21.80;;;;;;;5.29;100.00;98622.61;1485405;88;21482;-78
2023/11/24 10:06:08;;;;;;;31.90;21.63;;;;;;;5.26;100.00;98632.11;1470597;88;21324;-79
2023/11/24 10:08:38;;;;;;;29.03;20.30;;;;;;;5.25;100.00;98630.97;1475824;88;22388;-80
2023/11/24 10:11:13;;;;;;;29.03;19.70;;;;;;;5.27;100.00;98616.72;1478609;88;22336;-79
2023/11/24 10:13:44;;;;;;;28.80;19.70;;;;;;;5.36;100.00;98604.45;1483387;88;21308;-79
2023/11/24 10:16:12;;;;;;;31.30;21.20;;;;;;;5.42;100.00;98600.70;1477531;88;21367;-79
2023/11/24 10:18:41;;;;;;;29.13;19.70;;;;;;;5.45;100.00;98602.19;1479028;88;21485;-78
2023/11/24 10:21:12;;;;;;;28.60;19.83;;;;;;;5.45;100.00;98621.05;1485579;88;21426;-79
2023/11/24 10:23:39;;;;;;;28.70;19.48;;;;;;;5.47;100.00;98620.38;1490426;88;21441;-78
2023/11/24 10:26:15;;;;;;;37.90;23.00;;;;;;;5.51;100.00;98628.28;1482859;88;21545;-78
2023/11/24 10:28:44;;;;;;;32.43;20.53;;;;;;;5.61;100.00;98636.36;1472987;88;21412;-78
2023/11/24 10:31:13;;;;;;;29.90;19.80;;;;;;;5.76;100.00;98630.48;1476868;88;21337;-78
2023/11/24 10:33:40;;;;;;;28.40;19.97;;;;;;;5.88;100.00;98618.20;1485783;88;21337;-78
2023/11/24 10:36:08;;;;;;;28.57;20.33;;;;;;;5.98;100.00;98602.31;1480707;88;21633;-78
2023/11/24 10:38:39;;;;;;;29.03;19.30;;;;;;;6.07;100.00;98592.63;1481137;88;21367;-79
2023/11/24 10:41:12;;;;;;;33.92;20.43;;;;;;;6.11;100.00;98578.20;1475675;88;21656;-78
2023/11/24 10:43:39;;;;;;;26.83;18.40;;;;;;;6.14;100.00;98580.50;1473715;88;21419;-79
2023/11/24 10:46:11;;;;;;;29.97;19.23;;;;;;;6.18;100.00;98594.94;1479589;88;21487;-78
2023/11/24 10:48:49;;;;;;;27.57;18.07;;;;;;;6.20;100.00;98594.28;1487099;88;21360;-78
2023/11/24 10:51:27;;;;;;;23.87;16.17;;;;;;;6.22;100.00;98618.59;1474193;88;21448;-79
2023/11/24 10:53:56;;;;;;;26.20;17.83;;;;;;;6.23;100.00;98620.73;1480795;88;21574;-79
2023/11/24 10:56:24;;;;;;;35.53;20.77;;;;;;;6.25;100.00;98602.50;1480755;88;21484;-78
2023/11/24 10:58:55;;;;;;;28.87;19.73;;;;;;;6.26;100.00;98571.30;1486258;88;21463;-77
2023/11/24 11:01:26;;;;;;;28.55;18.52;;;;;;;6.29;100.00;98560.45;1488892;88;21308;-77
2023/11/24 11:03:55;;;;;;;;;;;;;;;6.38;100.00;98572.27;1479753;88;22181;-78
2023/11/24 11:06:39;;;;;;;31.50;18.53;;;;;;;6.46;100.00;98585.41;1485462;88;20282;-77
2023/11/24 11:09:23;;;;;;;33.57;18.97;;;;;;;6.51;100.00;98591.00;1461903;88;21581;-77
2023/11/24 11:12:13;;;;;;;;;;;;;;;6.54;100.00;98598.55;1486535;88;21590;-78
2023/11/24 11:14:37;;;;;;;30.15;17.60;;;;;;;6.55;100.00;98596.23;1481663;88;20283;-77
2023/11/24 11:17:15;;;;;;;36.40;19.97;;;;;;;6.55;100.00;98576.52;1483197;88;22435;-77